PWSweather.com
Personal Weather Stations
Station Observations
IESRVJEREZ
Ies Fco. Romero Vargas, Jerez De La FronteraES 11408

Ies Fco. Romero VargasJerez De La FronteraES 11408

Lat: 36.67203, Lon: -6.129915

Elevation: 98

Station Type: FWS 20

http://www.iesromerovargas.net/estacion_meteorologica/Cumulus/web/

Latest ConditionsUpdated 6:15:00 AM GMT+01:01 Friday, Jun 23, 2017
Currently Today's Max Today's Min Today's Average
Temperature 64.0°F17.8°C 70.7°F21.5°C 64.0°F17.8°C 67.8°F19.9°C
Dew Point 63.5°F17.5°C 67.5°F19.7°C 63.5°F17.5°C 65.8°F18.8°C
Winds Calm Calm 4.5 mph SE7.2 kmh SE - 1.4 mph 2.3 kmh
Wind Gusts 1.6 mph2.6 kmh 8.3 mph13.4 kmh - -
Humidity 98% 98% 89% 93%
Pressure 30.10 in1019.3 mb 30.11 in1019.6 mb 30.08 in1018.6 mb -
Hour Temp Dew Point Humidity Winds Wind Gusts Pressure Precip Precip Rate Daily Precip Total
06:15 AM 64.0°F17.8°C 63.5°F17.5°C 98% Calm Calm 1.6 mph2.6 kmh 30.10 in1019.3 mb 0.00 in0.0 mm 0.00 in0.0 mm 0.00 in0.0 mm
06:00 AM 64.2°F17.9°C 63.7°F17.6°C 98% Calm Calm 2.2 mph3.5 kmh 30.09 in1019.0 mb 0.00 in0.0 mm 0.00 in0.0 mm 0.00 in0.0 mm
05:45 AM 64.4°F18.0°C 63.8°F17.7°C 98% Calm Calm 0.7 mph1.1 kmh 30.10 in1019.3 mb 0.00 in0.0 mm 0.00 in0.0 mm 0.00 in0.0 mm
05:30 AM 64.6°F18.1°C 63.7°F17.6°C 97% Calm Calm 2.2 mph3.5 kmh 30.10 in1019.3 mb 0.00 in0.0 mm 0.00 in0.0 mm 0.00 in0.0 mm
05:15 AM 65.1°F18.4°C 64.3°F17.9°C 97% 0.7 mph ENE1.1 kmh ENE 3.1 mph5.0 kmh 30.09 in1019.0 mb 0.00 in0.0 mm 0.00 in0.0 mm 0.00 in0.0 mm
05:00 AM 65.7°F18.7°C 64.5°F18.1°C 96% 1.6 mph ESE2.6 kmh ESE 3.1 mph5.0 kmh 30.09 in1019.0 mb 0.00 in0.0 mm 0.00 in0.0 mm 0.00 in0.0 mm
04:45 AM 66.2°F19.0°C 65.1°F18.4°C 96% 3.1 mph SSE5.0 kmh SSE 4.5 mph7.2 kmh 30.09 in1019.0 mb 0.00 in0.0 mm 0.00 in0.0 mm 0.00 in0.0 mm
04:30 AM 66.6°F19.2°C 65.1°F18.4°C 95% 2.2 mph SE3.5 kmh SE 6.0 mph9.7 kmh 30.09 in1019.0 mb 0.00 in0.0 mm 0.00 in0.0 mm 0.00 in0.0 mm
04:15 AM 66.7°F19.3°C 65.3°F18.5°C 95% 2.2 mph SE3.5 kmh SE 5.4 mph8.7 kmh 30.09 in1019.0 mb 0.00 in0.0 mm 0.00 in0.0 mm 0.00 in0.0 mm
04:00 AM 66.7°F19.3°C 65.3°F18.5°C 95% 2.2 mph SSE3.5 kmh SSE 3.1 mph5.0 kmh 30.09 in1019.0 mb 0.00 in0.0 mm 0.00 in0.0 mm 0.00 in0.0 mm
03:45 AM 66.9°F19.4°C 65.2°F18.4°C 94% Calm Calm 2.2 mph3.5 kmh 30.09 in1019.0 mb 0.00 in0.0 mm 0.00 in0.0 mm 0.00 in0.0 mm
03:30 AM 67.5°F19.7°C 65.4°F18.6°C 93% 2.2 mph WSW3.5 kmh WSW 3.1 mph5.0 kmh 30.09 in1019.0 mb 0.00 in0.0 mm 0.00 in0.0 mm 0.00 in0.0 mm
03:15 AM 68.0°F20.0°C 65.9°F18.8°C 93% Calm Calm 5.4 mph8.7 kmh 30.08 in1018.6 mb 0.00 in0.0 mm 0.00 in0.0 mm 0.00 in0.0 mm
03:00 AM 68.4°F20.2°C 66.3°F19.1°C 93% 2.2 mph SE3.5 kmh SE 6.0 mph9.7 kmh 30.09 in1019.0 mb 0.00 in0.0 mm 0.00 in0.0 mm 0.00 in0.0 mm
02:45 AM 68.7°F20.4°C 66.6°F19.2°C 93% 2.2 mph SE3.5 kmh SE 8.3 mph13.4 kmh 30.09 in1019.0 mb 0.00 in0.0 mm 0.00 in0.0 mm 0.00 in0.0 mm
02:30 AM 68.9°F20.5°C 66.5°F19.2°C 92% 4.5 mph SE7.2 kmh SE 5.4 mph8.7 kmh 30.09 in1019.0 mb 0.00 in0.0 mm 0.00 in0.0 mm 0.00 in0.0 mm
02:15 AM 69.3°F20.7°C 66.9°F19.4°C 92% 3.1 mph SE5.0 kmh SE 5.4 mph8.7 kmh 30.10 in1019.3 mb 0.00 in0.0 mm 0.00 in0.0 mm 0.00 in0.0 mm
02:00 AM 69.6°F20.9°C 66.9°F19.4°C 91% 2.2 mph SE3.5 kmh SE 3.8 mph6.1 kmh 30.10 in1019.3 mb 0.00 in0.0 mm 0.00 in0.0 mm 0.00 in0.0 mm
01:45 AM 69.8°F21.0°C 67.1°F19.5°C 91% Calm Calm 3.1 mph5.0 kmh 30.11 in1019.6 mb 0.00 in0.0 mm 0.00 in0.0 mm 0.00 in0.0 mm
01:30 AM 69.8°F21.0°C 67.1°F19.5°C 91% 0.7 mph SE1.1 kmh SE 3.1 mph5.0 kmh 30.11 in1019.6 mb 0.00 in0.0 mm 0.00 in0.0 mm 0.00 in0.0 mm
01:15 AM 69.6°F20.9°C 66.9°F19.4°C 91% Calm Calm 2.2 mph3.5 kmh 30.11 in1019.6 mb 0.00 in0.0 mm 0.00 in0.0 mm 0.00 in0.0 mm
01:00 AM 70.0°F21.1°C 67.3°F19.6°C 91% 0.7 mph WSW1.1 kmh WSW 3.1 mph5.0 kmh 30.11 in1019.6 mb 0.00 in0.0 mm 0.00 in0.0 mm 0.00 in0.0 mm
12:45 AM 70.2°F21.2°C 67.4°F19.7°C 91% 0.7 mph WNW1.1 kmh WNW 2.2 mph3.5 kmh 30.11 in1019.6 mb 0.00 in0.0 mm 0.00 in0.0 mm 0.00 in0.0 mm
12:30 AM 70.5°F21.4°C 67.5°F19.7°C 90% 1.6 mph W2.6 kmh W 4.5 mph7.2 kmh 30.11 in1019.6 mb 0.00 in0.0 mm 0.00 in0.0 mm 0.00 in0.0 mm
12:15 AM 70.7°F21.5°C 67.3°F19.6°C 89% 3.1 mph W5.0 kmh W 6.0 mph9.7 kmh 30.11 in1019.6 mb 0.00 in0.0 mm 0.00 in0.0 mm 0.00 in0.0 mm
12:00 AM 70.7°F21.5°C 67.3°F19.6°C 89% 1.6 mph W2.6 kmh W 2.2 mph3.5 kmh 30.11 in1019.6 mb 0.00 in0.0 mm 0.00 in0.0 mm 0.00 in0.0 mm